Time;durP1;ratioP1;P1;durP2;ratioP2;P2;SDS_P1;SDS_P2;PMS_P1;PMS_P2;Temp;Humidity;BMP_temperature;BMP_pressure;BME280_temperature;BME280_humidity;BME280_pressure;Samples;Min_cycle;Max_cycle;Signal;HPM_P1;HPM_P2
2022/09/10 00:02:00;;;;;;;30.43;19.60;;;;;;;14.83;93.10;100654.80;1768395;80;25798;-79
2022/09/10 00:04:27;;;;;;;31.80;21.70;;;;;;;14.77;92.97;100653.80;1801018;79;27486;-79
2022/09/10 00:06:54;;;;;;;30.23;21.42;;;;;;;14.76;93.11;100649.95;1763738;80;25307;-78
2022/09/10 00:09:20;;;;;;;30.20;19.75;;;;;;;14.76;93.20;100656.69;1796903;79;26539;-79
2022/09/10 00:11:47;;;;;;;32.93;19.95;;;;;;;14.77;93.19;100654.31;1798048;79;25865;-78
2022/09/10 00:14:19;;;;;;;27.77;18.57;;;;;;;14.75;93.21;100654.53;1783867;79;26151;-78
2022/09/10 00:16:46;;;;;;;29.00;19.32;;;;;;;14.76;93.23;100652.64;1761270;80;28623;-79
2022/09/10 00:19:13;;;;;;;30.72;20.48;;;;;;;14.78;93.34;100646.00;1800714;78;25733;-78
2022/09/10 00:21:40;;;;;;;28.12;19.02;;;;;;;14.81;93.31;100638.02;1799685;79;26473;-79
2022/09/10 00:24:07;;;;;;;26.90;17.42;;;;;;;14.83;93.26;100639.46;1775031;80;25827;-78
2022/09/10 00:26:38;;;;;;;29.50;19.48;;;;;;;14.83;93.15;100639.46;1767643;80;26458;-78
2022/09/10 00:29:08;;;;;;;26.68;18.80;;;;;;;14.83;93.08;100641.33;1794401;79;27453;-78
2022/09/10 00:31:34;;;;;;;26.70;18.67;;;;;;;14.80;93.12;100635.83;1767209;80;25850;-78
2022/09/10 00:34:03;;;;;;;27.40;18.70;;;;;;;14.78;93.18;100637.11;1797043;79;25796;-79
2022/09/10 00:36:34;;;;;;;26.02;18.67;;;;;;;14.78;93.17;100635.77;1790270;79;25741;-79
2022/09/10 00:39:05;;;;;;;27.40;18.70;;;;;;;14.77;93.27;100644.36;1762961;80;25285;-79
2022/09/10 00:41:35;;;;;;;26.77;19.17;;;;;;;14.77;93.33;100637.63;1800492;79;27407;-78
2022/09/10 00:44:24;;;;;;;31.15;19.10;;;;;;;14.79;93.41;100637.41;1770581;80;25796;-79
2022/09/10 00:46:53;;;;;;;31.42;19.23;;;;;;;14.80;93.40;100633.67;1800503;78;25788;-79
2022/09/10 00:49:33;;;;;;;29.57;18.82;;;;;;;14.80;93.43;100630.44;1792252;79;25895;-79
2022/09/10 00:52:00;;;;;;;27.85;18.95;;;;;;;14.82;93.46;100627.55;1782248;79;25789;-78
2022/09/10 00:54:30;;;;;;;28.70;19.70;;;;;;;14.83;93.37;100628.67;1797475;79;27516;-79
2022/09/10 00:57:02;;;;;;;26.00;17.52;;;;;;;14.79;93.29;100630.14;1760142;80;25745;-78
2022/09/10 00:59:30;;;;;;;26.17;17.48;;;;;;;14.78;93.33;100626.33;1799377;79;25295;-78
2022/09/10 01:01:58;;;;;;;28.27;17.57;;;;;;;14.79;93.35;100621.22;1768400;80;26513;-78
2022/09/10 01:04:27;;;;;;;26.77;18.32;;;;;;;14.79;93.27;100619.87;1805616;79;25957;-78
2022/09/10 01:06:55;;;;;;;26.25;16.57;;;;;;;14.78;93.26;100615.54;1798615;79;27438;-78
2022/09/10 01:09:23;;;;;;;21.55;15.30;;;;;;;14.78;93.25;100618.23;1800486;79;25751;-78
2022/09/10 01:12:07;;;;;;;24.18;15.53;;;;;;;14.77;93.17;100618.75;1768499;80;25806;-78
2022/09/10 01:15:06;;;;;;;22.82;15.48;;;;;;;14.72;93.13;100609.63;1771324;80;26553;-79
2022/09/10 01:18:13;;;;;;;24.57;16.30;;;;;;;14.69;93.34;100607.66;1801003;79;25878;-79
2022/09/10 01:21:14;;;;;;;24.55;17.12;;;;;;;14.66;93.44;100602.72;1793483;79;27136;-78
2022/09/10 01:23:56;;;;;;;26.40;16.55;;;;;;;14.64;93.56;100597.22;1803453;79;25779;-78
2022/09/10 01:26:46;;;;;;;25.30;16.57;;;;;;;14.59;93.61;100599.72;1768566;80;25876;-78
2022/09/10 01:29:38;;;;;;;25.65;16.40;;;;;;;14.60;93.76;100600.88;1794921;79;25818;-79
2022/09/10 01:32:13;;;;;;;22.95;16.37;;;;;;;14.60;93.76;100591.44;1783286;79;25627;-78
2022/09/10 01:34:46;;;;;;;27.73;17.23;;;;;;;14.59;93.73;100591.63;1743949;80;28093;-78
2022/09/10 01:37:20;;;;;;;24.25;16.52;;;;;;;14.58;93.82;100587.30;1801719;78;25768;-79
2022/09/10 01:39:48;;;;;;;26.52;15.45;;;;;;;14.57;93.87;100585.11;1795870;79;26315;-78
2022/09/10 01:42:15;;;;;;;27.73;17.62;;;;;;;14.58;93.95;100582.70;1801051;79;26555;-77
2022/09/10 01:44:48;;;;;;;25.65;16.80;;;;;;;14.61;94.03;100592.25;1780268;79;25822;-77
2022/09/10 01:47:42;;;;;;;26.50;16.67;;;;;;;14.59;94.06;100592.47;1800541;79;28264;-78
2022/09/10 01:50:46;;;;;;;25.27;15.95;;;;;;;14.60;94.21;100599.53;1802281;78;25801;-78
2022/09/10 01:53:51;;;;;;;23.25;15.43;;;;;;;14.60;94.27;100592.79;1765327;80;25805;-78
2022/09/10 01:57:00;;;;;;;23.65;15.13;;;;;;;14.58;94.31;100589.45;1795292;79;25999;-78
2022/09/10 01:59:53;;;;;;;21.50;14.65;;;;;;;14.56;94.31;100586.14;1797299;79;26655;-79
2022/09/10 02:02:27;;;;;;;20.17;14.05;;;;;;;14.52;94.27;100576.02;1771643;80;28022;-77
2022/09/10 02:04:55;;;;;;;21.62;14.45;;;;;;;14.52;94.27;100576.83;1791918;79;25848;-78
2022/09/10 02:07:25;;;;;;;21.12;14.23;;;;;;;14.52;94.27;100582.77;1800837;79;25892;-79
2022/09/10 02:09:53;;;;;;;17.57;11.88;;;;;;;14.48;94.09;100586.37;1776493;79;25921;-78
2022/09/10 02:12:21;;;;;;;19.35;11.22;;;;;;;14.47;94.13;100586.60;1801952;79;25881;-79
2022/09/10 02:14:55;;;;;;;18.67;12.18;;;;;;;14.46;94.20;100584.94;1784304;78;28395;-78
2022/09/10 02:17:36;;;;;;;18.00;12.00;;;;;;;14.45;94.17;100572.00;1797452;79;25966;-78
2022/09/10 02:20:07;;;;;;;18.42;11.38;;;;;;;14.44;94.10;100567.64;1763276;80;25813;-79
2022/09/10 02:22:35;;;;;;;15.98;10.23;;;;;;;14.45;94.20;100572.00;1805330;79;25830;-78
2022/09/10 02:25:03;;;;;;;14.98;10.08;;;;;;;14.45;94.15;100575.20;1802864;79;25773;-78
2022/09/10 02:27:30;;;;;;;13.30;9.40;;;;;;;14.46;94.23;100568.25;1788746;79;27448;-78
2022/09/10 02:29:57;;;;;;;14.43;9.18;;;;;;;14.47;94.16;100568.57;1803451;79;25861;-78
2022/09/10 02:32:24;;;;;;;16.02;9.93;;;;;;;14.48;94.25;100572.91;1788820;78;25913;-77
2022/09/10 02:34:51;;;;;;;12.47;9.28;;;;;;;14.48;94.18;100568.03;1776543;80;25762;-79
2022/09/10 02:37:19;;;;;;;13.95;9.28;;;;;;;14.49;94.11;100570.53;1804114;78;25805;-79
2022/09/10 02:39:46;;;;;;;14.80;9.58;;;;;;;14.45;94.08;100557.18;1801332;79;27866;-78
2022/09/10 02:42:15;;;;;;;13.00;9.33;;;;;;;14.47;94.19;100563.18;1793118;79;25718;-78
2022/09/10 02:44:43;;;;;;;12.70;8.97;;;;;;;14.48;94.14;100555.90;1804429;79;25738;-78
2022/09/10 02:47:10;;;;;;;10.53;8.75;;;;;;;14.47;94.13;100557.80;1762498;80;25928;-78
2022/09/10 02:49:36;;;;;;;10.40;7.62;;;;;;;14.45;94.10;100551.79;1799820;79;25752;-78
2022/09/10 02:52:03;;;;;;;10.08;8.50;;;;;;;14.43;93.98;100547.64;1793989;79;28515;-78
2022/09/10 02:54:30;;;;;;;14.18;8.93;;;;;;;14.44;94.11;100544.73;1803066;79;25768;-78
2022/09/10 02:56:56;;;;;;;10.70;8.38;;;;;;;14.43;93.98;100537.70;1790086;79;25279;-78
2022/09/10 02:59:23;;;;;;;13.08;8.80;;;;;;;14.40;93.99;100540.80;1802372;79;25809;-78
2022/09/10 03:01:50;;;;;;;12.13;9.68;;;;;;;14.39;94.06;100545.87;1793697;79;25973;-78
2022/09/10 03:04:17;;;;;;;10.70;9.30;;;;;;;14.41;94.13;100541.64;1803542;79;27432;-78
2022/09/10 03:06:48;;;;;;;13.25;9.33;;;;;;;14.40;94.04;100540.80;1800942;79;25771;-78
2022/09/10 03:09:13;;;;;;;14.55;10.28;;;;;;;14.41;94.04;100542.45;1789446;79;25765;-78
2022/09/10 03:11:39;;;;;;;12.00;9.83;;;;;;;14.41;94.01;100546.48;1806715;79;25820;-78
2022/09/10 03:14:08;;;;;;;13.38;10.38;;;;;;;14.41;94.07;100539.75;1792766;79;25878;-78
2022/09/10 03:16:35;;;;;;;17.10;12.50;;;;;;;14.39;94.03;100535.09;1801019;79;27455;-78
2022/09/10 03:19:03;;;;;;;15.32;12.05;;;;;;;14.40;94.09;100536.77;1806881;79;25869;-78
2022/09/10 03:21:30;;;;;;;14.45;11.10;;;;;;;14.39;94.11;100526.20;1803953;79;25960;-78
2022/09/10 03:23:58;;;;;;;14.55;11.68;;;;;;;14.38;94.12;100529.92;1806609;79;25737;-78
2022/09/10 03:26:27;;;;;;;17.52;11.20;;;;;;;14.38;94.17;100532.63;1805841;79;25893;-78
2022/09/10 03:28:53;;;;;;;14.50;11.90;;;;;;;14.37;94.19;100529.64;1806899;79;26888;-78
2022/09/10 03:31:21;;;;;;;20.82;11.85;;;;;;;14.37;94.21;100530.98;1805610;79;25782;-78
2022/09/10 03:33:49;;;;;;;14.43;10.80;;;;;;;14.37;94.25;100530.98;1804941;79;25779;-78
2022/09/10 03:36:17;;;;;;;16.97;11.18;;;;;;;14.35;94.18;100533.87;1808890;79;25875;-77
2022/09/10 03:38:44;;;;;;;14.68;11.15;;;;;;;14.34;94.23;100535.44;1808069;79;25418;-78
2022/09/10 03:41:10;;;;;;;16.07;12.85;;;;;;;14.31;94.29;100533.98;1803852;79;27422;-78
2022/09/10 03:43:37;;;;;;;18.70;11.97;;;;;;;14.33;94.30;100541.85;1802864;78;26021;-78
2022/09/10 03:46:05;;;;;;;19.02;12.43;;;;;;;14.31;94.33;100545.28;1801572;78;26081;-78
2022/09/10 03:48:33;;;;;;;20.82;12.95;;;;;;;14.29;94.36;100544.67;1803709;79;25851;-78
2022/09/10 03:51:00;;;;;;;20.97;13.50;;;;;;;14.27;94.44;100540.81;1773048;80;26377;-79
2022/09/10 03:53:28;;;;;;;20.45;14.40;;;;;;;14.28;94.50;100541.14;1810801;79;28262;-78
2022/09/10 03:55:55;;;;;;;19.57;13.70;;;;;;;14.28;94.57;100539.79;1808577;79;25820;-78
2022/09/10 03:58:21;;;;;;;21.97;14.25;;;;;;;14.27;94.65;100536.77;1807630;79;25825;-78
2022/09/10 04:00:49;;;;;;;18.60;13.13;;;;;;;14.27;94.76;100535.94;1808871;79;25781;-78
2022/09/10 04:03:16;;;;;;;21.48;13.22;;;;;;;14.25;94.87;100544.24;1809978;79;26510;-78
2022/09/10 04:05:43;;;;;;;21.73;14.70;;;;;;;14.23;94.92;100542.28;1806214;79;27435;-79
2022/09/10 04:08:11;;;;;;;20.70;13.60;;;;;;;14.22;95.05;100546.00;1808547;78;25936;-78
2022/09/10 04:10:45;;;;;;;24.43;14.60;;;;;;;14.22;95.07;100558.67;1807408;79;25775;-77
2022/09/10 04:13:12;;;;;;;24.65;16.12;;;;;;;14.19;95.08;100555.03;1805287;79;26404;-78
2022/09/10 04:15:39;;;;;;;25.27;15.72;;;;;;;14.17;95.27;100556.60;1804339;79;26082;-78
2022/09/10 04:18:07;;;;;;;25.80;15.28;;;;;;;14.18;95.46;100555.55;1806320;79;28026;-78
2022/09/10 04:20:36;;;;;;;21.05;14.15;;;;;;;14.20;95.46;100556.16;1806276;78;25939;-78
2022/09/10 04:23:07;;;;;;;23.40;14.98;;;;;;;14.23;95.53;100554.92;1801981;79;25836;-78
2022/09/10 04:25:36;;;;;;;21.35;14.35;;;;;;;14.21;95.32;100544.88;1805974;79;26353;-78
2022/09/10 04:28:02;;;;;;;25.90;15.63;;;;;;;14.21;95.31;100534.09;1808692;79;25752;-77
2022/09/10 04:30:30;;;;;;;20.55;13.32;;;;;;;14.22;95.33;100534.42;1806327;78;27490;-78
2022/09/10 04:32:56;;;;;;;23.65;13.45;;;;;;;14.22;95.32;100517.71;1737834;82;25820;-78
2022/09/10 04:35:24;;;;;;;18.95;13.72;;;;;;;14.20;95.09;100510.36;1809410;78;25821;-78
2022/09/10 04:37:51;;;;;;;24.00;14.35;;;;;;;14.18;95.07;100498.98;1807702;79;26604;-78
2022/09/10 04:40:17;;;;;;;23.90;14.70;;;;;;;14.18;95.02;100498.17;1803697;79;25785;-77
2022/09/10 04:42:44;;;;;;;18.27;14.03;;;;;;;14.15;95.07;100503.97;1771410;80;27471;-77
2022/09/10 04:45:11;;;;;;;22.20;15.80;;;;;;;14.14;95.12;100503.65;1783743;79;26516;-78
2022/09/10 04:47:39;;;;;;;21.02;14.98;;;;;;;14.16;95.15;100509.65;1807208;79;25324;-78
2022/09/10 04:50:07;;;;;;;22.27;14.55;;;;;;;14.18;95.14;100502.21;1806699;79;25931;-77
2022/09/10 04:52:34;;;;;;;21.15;15.93;;;;;;;14.16;94.93;100502.41;1808049;79;25299;-78
2022/09/10 04:55:01;;;;;;;22.80;15.65;;;;;;;14.16;94.84;100499.71;1734898;81;27495;-78
2022/09/10 04:57:27;;;;;;;22.32;16.17;;;;;;;14.17;94.87;100494.64;1759169;81;25728;-77
2022/09/10 04:59:54;;;;;;;20.57;15.40;;;;;;;14.18;94.76;100497.63;1758980;81;25765;-78
2022/09/10 05:02:22;;;;;;;19.00;14.07;;;;;;;14.16;94.56;100494.32;1757226;81;25877;-78
2022/09/10 05:04:49;;;;;;;19.80;15.08;;;;;;;14.19;94.57;100493.08;1756806;81;25784;-77
2022/09/10 05:07:16;;;;;;;17.45;14.43;;;;;;;14.21;94.56;100499.08;1761310;81;27454;-77
2022/09/10 05:09:42;;;;;;;20.72;15.32;;;;;;;14.18;94.21;100496.28;1759831;81;25838;-78
2022/09/10 05:12:09;;;;;;;22.52;15.58;;;;;;;14.16;94.30;100491.63;1760203;81;25786;-77
2022/09/10 05:14:36;;;;;;;23.27;15.55;;;;;;;14.18;94.44;100496.28;1759465;81;25888;-77
2022/09/10 05:17:04;;;;;;;22.58;16.35;;;;;;;14.20;94.55;100506.32;1754192;81;25939;-78
2022/09/10 05:19:31;;;;;;;21.48;15.32;;;;;;;14.22;94.54;100504.78;1756436;81;27453;-78
2022/09/10 05:21:59;;;;;;;21.73;15.72;;;;;;;14.18;94.21;100501.67;1755870;81;25939;-78
2022/09/10 05:24:26;;;;;;;22.15;15.43;;;;;;;14.19;94.35;100501.99;1758624;81;25764;-78
2022/09/10 05:26:52;;;;;;;21.42;15.78;;;;;;;14.19;94.32;100503.84;1760500;81;26339;-77
2022/09/10 05:29:20;;;;;;;22.27;15.43;;;;;;;14.20;94.40;100505.52;1761019;81;26736;-77
2022/09/10 05:31:47;;;;;;;19.98;14.38;;;;;;;14.18;94.13;100508.95;1757825;81;28284;-78
2022/09/10 05:34:14;;;;;;;19.40;14.35;;;;;;;14.16;94.09;100505.61;1761350;81;25759;-78
2022/09/10 05:36:40;;;;;;;16.42;13.88;;;;;;;14.14;93.95;100504.48;1758878;81;25867;-77
2022/09/10 05:39:07;;;;;;;21.82;15.35;;;;;;;14.13;94.02;100505.54;1755333;81;26641;-78
2022/09/10 05:41:36;;;;;;;20.23;14.65;;;;;;;14.11;93.78;100505.44;1755106;81;26204;-77
2022/09/10 05:44:03;;;;;;;22.60;15.13;;;;;;;14.07;93.67;100498.82;1758786;81;27486;-78
2022/09/10 05:46:30;;;;;;;15.93;12.37;;;;;;;14.03;93.70;100497.05;1755781;81;25777;-78
2022/09/10 05:48:58;;;;;;;18.82;12.13;;;;;;;13.99;93.75;100501.20;1757659;81;25296;-77
2022/09/10 05:51:28;;;;;;;19.60;13.30;;;;;;;13.97;93.87;100494.37;1758000;81;25777;-77
2022/09/10 05:53:56;;;;;;;21.85;13.00;;;;;;;13.99;94.06;100481.52;1776810;80;25794;-78
2022/09/10 05:56:24;;;;;;;16.77;13.58;;;;;;;14.00;94.01;100477.80;1802239;79;27468;-77
2022/09/10 05:58:51;;;;;;;20.60;14.73;;;;;;;14.00;93.80;100480.50;1777305;79;25895;-77
2022/09/10 06:01:17;;;;;;;23.10;14.50;;;;;;;13.96;93.93;100485.48;1802441;79;25550;-78
2022/09/10 06:03:44;;;;;;;20.97;14.80;;;;;;;13.96;94.03;100489.53;1781965;79;26529;-77
2022/09/10 06:06:11;;;;;;;21.65;14.10;;;;;;;13.96;94.23;100485.48;1807307;79;25882;-78
2022/09/10 06:08:39;;;;;;;15.40;12.43;;;;;;;13.99;94.36;100483.70;1803496;78;27696;-78
2022/09/10 06:11:10;;;;;;;15.60;11.12;;;;;;;13.98;94.21;100479.38;1780937;79;25950;-77
2022/09/10 06:13:41;;;;;;;15.30;11.55;;;;;;;13.95;94.01;100483.82;1733161;82;26625;-78
2022/09/10 06:16:08;;;;;;;15.32;12.07;;;;;;;13.92;94.09;100479.68;1779638;78;25780;-78
2022/09/10 06:18:35;;;;;;;15.08;11.60;;;;;;;13.91;94.13;100478.55;1799476;79;25758;-78
2022/09/10 06:21:14;;;;;;;17.05;13.13;;;;;;;13.87;94.08;100486.75;1800299;79;27451;-77
2022/09/10 06:23:46;;;;;;;17.07;11.65;;;;;;;13.87;94.28;100482.70;1799979;77;26155;-81
2022/09/10 06:26:17;;;;;;;15.65;11.75;;;;;;;13.87;94.46;100491.63;1791663;77;25695;-79
2022/09/10 06:28:45;;;;;;;17.00;11.85;;;;;;;13.88;94.37;100483.84;1792319;79;26232;-80
2022/09/10 06:31:16;;;;;;;16.32;12.05;;;;;;;13.89;94.49;100482.81;1792173;79;25810;-79
2022/09/10 06:33:47;;;;;;;16.42;12.43;;;;;;;13.91;94.23;100484.77;1794841;79;27455;-79
2022/09/10 06:36:16;;;;;;;18.42;12.40;;;;;;;13.89;94.07;100478.77;1802870;78;25915;-79
2022/09/10 06:38:43;;;;;;;16.10;12.95;;;;;;;13.90;94.12;100480.92;1795482;79;25778;-80
2022/09/10 06:41:14;;;;;;;17.70;13.43;;;;;;;13.92;94.15;100481.03;1771825;80;26533;-79
2022/09/10 06:43:43;;;;;;;20.37;13.98;;;;;;;13.93;94.11;100481.86;1801165;79;25783;-79
2022/09/10 06:46:17;;;;;;;21.60;14.20;;;;;;;13.91;94.12;100479.39;1787013;79;27146;-82
2022/09/10 06:48:46;;;;;;;16.15;13.10;;;;;;;13.93;94.33;100477.82;1789610;79;25471;-81
2022/09/10 06:51:16;;;;;;;17.65;13.70;;;;;;;13.93;94.29;100469.74;1798986;79;25748;-82
2022/09/10 06:53:46;;;;;;;19.00;14.80;;;;;;;13.96;94.39;100468.50;1796499;79;25752;-80
2022/09/10 06:56:14;;;;;;;16.35;13.25;;;;;;;13.97;94.34;100462.06;1774055;80;25614;-84
2022/09/10 06:58:42;;;;;;;16.80;13.80;;;;;;;13.96;94.18;100457.73;1759205;79;27427;-79
2022/09/10 07:01:19;;;;;;;19.45;14.87;;;;;;;13.92;94.12;100466.22;1796839;79;25777;-80
2022/09/10 07:03:58;;;;;;;18.98;14.45;;;;;;;13.91;94.23;100464.58;1798200;79;25782;-78
2022/09/10 07:06:27;;;;;;;18.80;14.98;;;;;;;13.90;94.30;100469.64;1800715;79;25926;-84
2022/09/10 07:08:58;;;;;;;20.52;16.62;;;;;;;13.89;94.18;100477.94;1795369;79;25739;-83
2022/09/10 07:11:29;;;;;;;21.37;15.63;;;;;;;13.86;94.29;100481.88;1799652;79;28485;-84
2022/09/10 07:13:57;;;;;;;21.85;16.80;;;;;;;13.83;94.24;100483.66;1775645;80;25949;-83
2022/09/10 07:16:27;;;;;;;21.93;15.53;;;;;;;13.82;94.36;100483.84;1773427;80;26417;-80
2022/09/10 07:18:57;;;;;;;19.35;15.25;;;;;;;13.85;94.63;100484.28;1792315;79;25800;-80
2022/09/10 07:21:27;;;;;;;18.57;14.50;;;;;;;13.87;94.71;100490.27;1794854;78;26360;-77
2022/09/10 07:24:00;;;;;;;18.73;15.23;;;;;;;13.90;94.76;100482.27;1797889;79;28354;-77
2022/09/10 07:26:27;;;;;;;17.50;13.83;;;;;;;13.93;94.75;100484.55;1800122;79;26400;-78
2022/09/10 07:28:56;;;;;;;16.77;13.88;;;;;;;13.91;94.48;100479.39;1802530;79;26450;-80
2022/09/10 07:31:32;;;;;;;17.10;14.50;;;;;;;13.90;94.39;100477.72;1803517;78;26552;-79
2022/09/10 07:34:03;;;;;;;17.32;13.95;;;;;;;13.89;94.42;100482.81;1802166;79;25874;-80
2022/09/10 07:36:30;;;;;;;18.62;15.53;;;;;;;13.91;94.61;100483.94;1800873;79;27511;-77
2022/09/10 07:39:03;;;;;;;21.40;15.88;;;;;;;13.93;94.57;100481.34;1800566;79;25792;-78
2022/09/10 07:41:35;;;;;;;17.92;15.68;;;;;;;13.96;94.57;100477.41;1804578;79;25800;-78
2022/09/10 07:44:04;;;;;;;20.35;15.93;;;;;;;13.98;94.50;100473.16;1805578;79;26566;-77
2022/09/10 07:46:32;;;;;;;19.90;15.70;;;;;;;14.01;94.62;100480.28;1801660;78;25812;-79
2022/09/10 07:49:00;;;;;;;20.92;16.87;;;;;;;14.00;94.51;100482.68;1772985;80;27428;-79
2022/09/10 07:51:29;;;;;;;18.90;15.68;;;;;;;14.01;94.35;100487.55;1753753;81;25779;-78
2022/09/10 07:53:58;;;;;;;18.70;15.53;;;;;;;13.98;94.33;100488.80;1758777;81;25799;-81
2022/09/10 07:56:30;;;;;;;21.82;16.62;;;;;;;14.01;94.58;100498.33;1753226;81;26353;-79
2022/09/10 07:58:56;;;;;;;19.62;15.38;;;;;;;14.04;94.68;100496.54;1777391;80;26619;-77
2022/09/10 08:01:24;;;;;;;16.57;14.25;;;;;;;14.06;94.69;100498.50;1786351;79;27519;-77
2022/09/10 08:04:01;;;;;;;18.52;15.05;;;;;;;14.10;94.73;100507.30;1805107;78;25856;-77
2022/09/10 08:06:25;;;;;;;17.48;15.23;;;;;;;14.13;94.62;100505.54;1797404;79;25951;-77
2022/09/10 08:08:52;;;;;;;19.90;16.02;;;;;;;14.15;94.65;100504.80;1796123;79;25718;-79
2022/09/10 08:11:20;;;;;;;20.15;16.32;;;;;;;14.16;94.49;100505.61;1782834;79;25757;-79
2022/09/10 08:13:51;;;;;;;21.87;16.12;;;;;;;14.14;94.26;100503.65;1807387;79;28543;-77
2022/09/10 08:16:22;;;;;;;19.25;15.18;;;;;;;14.11;94.26;100504.92;1793984;79;25801;-77
2022/09/10 08:18:55;;;;;;;;;;;;;;;14.13;94.45;100498.80;1803048;79;25741;-78
2022/09/10 08:21:19;;;;;;;21.10;14.90;;;;;;;14.13;94.49;100498.80;1800300;78;26580;-77
2022/09/10 08:23:55;;;;;;;21.52;16.07;;;;;;;14.15;94.62;100497.23;1800493;79;25925;-80
2022/09/10 08:26:25;;;;;;;21.65;16.42;;;;;;;14.17;94.57;100491.95;1797822;79;28211;-82
2022/09/10 08:28:54;;;;;;;18.67;15.32;;;;;;;14.21;94.71;100493.17;1781026;79;25759;-80
2022/09/10 08:31:23;;;;;;;19.77;14.93;;;;;;;14.23;94.75;100499.69;1798667;78;25913;-79
2022/09/10 08:33:53;;;;;;;21.03;15.20;;;;;;;14.20;94.42;100498.24;1802952;79;25943;-79
2022/09/10 08:36:23;;;;;;;16.37;13.08;;;;;;;14.20;94.42;100498.24;1801765;79;25941;-79
2022/09/10 08:38:50;;;;;;;15.43;12.13;;;;;;;14.24;94.50;100502.70;1797244;77;27938;-79
2022/09/10 08:41:41;;;;;;;15.28;12.13;;;;;;;14.22;94.28;100498.86;1805990;77;25296;-79
2022/09/10 08:44:16;;;;;;;15.58;12.00;;;;;;;14.22;94.41;100497.50;1759183;79;26310;-80
2022/09/10 08:46:54;;;;;;;15.03;10.95;;;;;;;14.27;94.64;100500.91;1759870;79;26576;-79
2022/09/10 08:49:45;;;;;;;14.55;11.10;;;;;;;14.30;94.66;100504.58;1795695;79;25307;-79
2022/09/10 08:52:29;;;;;;;16.50;11.63;;;;;;;14.34;94.62;100503.94;1798412;79;28165;-79
2022/09/10 08:55:20;;;;;;;17.98;12.98;;;;;;;14.35;94.23;100503.42;1770667;78;25838;-78
2022/09/10 08:58:05;;;;;;;15.25;11.50;;;;;;;14.32;94.10;100510.58;1794842;79;26079;-80
2022/09/10 09:00:36;;;;;;;16.90;12.68;;;;;;;14.30;94.25;100508.10;1795899;79;25832;-79
2022/09/10 09:03:28;;;;;;;15.08;11.43;;;;;;;14.33;94.47;100509.52;1800465;79;25812;-79
2022/09/10 09:06:04;;;;;;;16.80;10.95;;;;;;;14.36;94.51;100510.45;1780692;79;28319;-79
2022/09/10 09:08:47;;;;;;;13.00;10.70;;;;;;;14.41;94.57;100509.30;1799912;78;26655;-81
2022/09/10 09:11:33;;;;;;;11.55;10.00;;;;;;;14.44;94.53;100505.65;1807483;79;25798;-79
2022/09/10 09:14:18;;;;;;;14.25;11.18;;;;;;;14.48;94.48;100503.34;1802070;78;25789;-79
2022/09/10 09:17:20;;;;;;;14.75;10.20;;;;;;;14.51;94.35;100504.27;1782606;79;25794;-78
2022/09/10 09:20:01;;;;;;;13.05;9.53;;;;;;;14.56;94.20;100505.81;1797624;78;27457;-78
2022/09/10 09:22:46;;;;;;;12.73;10.25;;;;;;;14.54;93.84;100509.25;1793727;79;25870;-78
2022/09/10 09:25:28;;;;;;;13.93;10.43;;;;;;;14.56;93.79;100512.01;1768585;80;26382;-78
2022/09/10 09:27:57;;;;;;;;;;;;;;;14.55;93.71;100504.15;1783313;78;25937;-79
2022/09/10 09:30:40;;;;;;;14.18;10.00;;;;;;;14.57;93.81;100499.37;1785856;79;25856;-79
2022/09/10 09:33:15;;;;;;;12.82;9.38;;;;;;;14.58;93.84;100503.73;1803050;79;27984;-79
2022/09/10 09:35:55;;;;;;;11.85;9.48;;;;;;;14.60;93.83;100494.39;1797887;79;25410;-79
2022/09/10 09:38:39;;;;;;;11.35;9.45;;;;;;;14.64;93.80;100490.22;1787291;79;25877;-79
2022/09/10 09:41:30;;;;;;;15.58;10.10;;;;;;;14.66;93.70;100490.00;1800433;79;26191;-78
2022/09/10 09:44:11;;;;;;;10.53;8.80;;;;;;;14.66;93.55;100488.13;1786224;79;26121;-78
2022/09/10 09:46:37;;;;;;;15.72;10.60;;;;;;;14.68;93.55;100484.70;1795938;79;27632;-78
2022/09/10 09:49:05;;;;;;;14.20;11.57;;;;;;;14.73;93.57;100486.75;1769678;80;25877;-78
2022/09/10 09:51:34;;;;;;;13.80;11.20;;;;;;;14.71;93.16;100479.41;1799430;78;26104;-79
2022/09/10 09:54:08;;;;;;;15.60;12.73;;;;;;;14.71;93.15;100477.22;1800437;79;25726;-79
2022/09/10 09:56:42;;;;;;;17.30;13.30;;;;;;;14.70;92.97;100476.39;1789429;79;26469;-79
2022/09/10 09:59:33;;;;;;;16.48;13.22;;;;;;;14.69;93.01;100471.51;1775333;79;28254;-78
2022/09/10 10:02:19;;;;;;;19.82;14.58;;;;;;;14.71;92.75;100469.12;1796819;79;25710;-79
2022/09/10 10:05:19;;;;;;;15.65;13.95;;;;;;;14.71;92.96;100464.58;1799381;79;25939;-78
2022/09/10 10:07:47;;;;;;;15.35;13.25;;;;;;;14.73;92.92;100459.79;1790577;79;26569;-79
2022/09/10 10:10:25;;;;;;;17.90;12.90;;;;;;;14.78;92.92;100459.94;1793414;79;26487;-79
2022/09/10 10:12:54;;;;;;;14.93;12.00;;;;;;;14.81;92.97;100454.13;1799124;79;27261;-79
2022/09/10 10:15:41;;;;;;;12.78;10.68;;;;;;;14.85;92.89;100459.91;1787987;78;25278;-80
2022/09/10 10:18:32;;;;;;;15.63;13.28;;;;;;;14.87;92.75;100467.25;1725143;82;25727;-79
2022/09/10 10:21:18;;;;;;;15.80;13.98;;;;;;;14.89;92.79;100475.44;1804568;79;25928;-79
2022/09/10 10:23:46;;;;;;;15.50;12.58;;;;;;;14.89;92.42;100472.73;1784192;79;25855;-79
2022/09/10 10:26:24;;;;;;;15.85;12.90;;;;;;;14.91;92.67;100470.64;1796965;79;27951;-79
2022/09/10 10:29:05;;;;;;;15.30;12.63;;;;;;;14.97;92.80;100462.22;1770797;79;25779;-79
2022/09/10 10:31:42;;;;;;;15.85;12.55;;;;;;;15.02;92.41;100464.56;1798173;79;25878;-81
2022/09/10 10:34:16;;;;;;;18.67;12.90;;;;;;;15.04;92.42;100464.33;1800302;79;25789;-80
2022/09/10 10:37:08;;;;;;;16.87;12.43;;;;;;;15.07;92.23;100462.05;1797559;79;25776;-79
2022/09/10 10:39:59;;;;;;;13.25;11.18;;;;;;;15.07;92.01;100460.69;1789418;78;27484;-81
2022/09/10 10:42:39;;;;;;;15.68;11.15;;;;;;;15.09;92.02;100461.30;1795458;79;26110;-80
2022/09/10 10:45:31;;;;;;;16.00;11.08;;;;;;;15.11;91.85;100452.46;1799134;79;25766;-80
2022/09/10 10:48:18;;;;;;;11.03;9.35;;;;;;;15.11;91.51;100444.37;1800140;78;26687;-81
2022/09/10 10:50:55;;;;;;;11.53;8.95;;;;;;;15.11;91.30;100440.84;1791472;79;26062;-81
2022/09/10 10:53:50;;;;;;;14.03;10.72;;;;;;;15.08;91.37;100438.56;1789323;79;27479;-80
2022/09/10 10:56:43;;;;;;;11.93;9.48;;;;;;;15.10;91.55;100433.77;1774590;79;26559;-79
2022/09/10 10:59:27;;;;;;;13.90;9.83;;;;;;;15.13;91.53;100434.18;1796139;79;26760;-79
2022/09/10 11:01:59;;;;;;;13.00;10.48;;;;;;;15.14;91.46;100435.02;1762808;79;26683;-80
2022/09/10 11:04:50;;;;;;;23.40;10.98;;;;;;;15.18;91.64;100434.88;1790952;78;25886;-79
2022/09/10 11:07:28;;;;;;;12.43;10.18;;;;;;;15.20;91.50;100434.13;1793551;79;27968;-79
2022/09/10 11:10:24;;;;;;;12.80;10.18;;;;;;;15.24;91.40;100423.19;1792825;79;25790;-80
2022/09/10 11:13:14;;;;;;;14.15;9.58;;;;;;;15.27;91.51;100419.52;1787882;79;25765;-79
2022/09/10 11:16:05;;;;;;;12.25;10.40;;;;;;;15.33;91.47;100414.58;1795847;79;25763;-79
2022/09/10 11:18:43;;;;;;;12.60;9.43;;;;;;;15.37;90.94;100413.11;1788243;79;26486;-79
2022/09/10 11:21:23;;;;;;;13.40;10.23;;;;;;;15.35;90.56;100411.67;1793678;79;28356;-79
2022/09/10 11:23:58;;;;;;;14.98;11.08;;;;;;;15.37;90.46;100407.72;1746778;80;25825;-78
2022/09/10 11:26:36;;;;;;;12.93;10.80;;;;;;;15.39;90.49;100408.31;1757753;80;25803;-79
2022/09/10 11:29:36;;;;;;;11.00;9.25;;;;;;;15.41;90.61;100410.78;1768670;79;25837;-79
2022/09/10 11:32:26;;;;;;;11.78;8.98;;;;;;;15.37;90.32;100405.53;1792479;78;25290;-79
2022/09/10 11:35:25;;;;;;;13.03;9.33;;;;;;;15.37;90.21;100413.63;1790798;78;27425;-78
2022/09/10 11:38:30;;;;;;;10.43;9.20;;;;;;;15.34;90.42;100408.14;1787530;78;26481;-78
2022/09/10 11:41:16;;;;;;;11.63;8.65;;;;;;;15.33;90.21;100405.67;1698942;81;26514;-78